createdAt,value
2023-03-13T00:01:47.379Z,9.87
2023-03-13T00:05:50.993Z,6.47
2023-03-13T00:09:54.563Z,8.00
2023-03-13T00:13:59.053Z,6.40
2023-03-13T00:18:04.050Z,8.07
2023-03-13T00:22:07.894Z,9.90
2023-03-13T00:26:12.730Z,6.47
2023-03-13T00:30:16.763Z,6.97
2023-03-13T00:34:22.929Z,6.97
2023-03-13T00:38:26.684Z,12.27
2023-03-13T00:42:30.414Z,8.27
2023-03-13T00:46:34.047Z,8.63
2023-03-13T00:50:39.218Z,8.10
2023-03-13T00:54:43.252Z,6.00
2023-03-13T00:58:48.780Z,5.67
2023-03-13T01:02:52.544Z,6.70
2023-03-13T01:06:57.854Z,7.70
2023-03-13T01:11:02.301Z,4.97
2023-03-13T01:15:06.831Z,7.87
2023-03-13T01:19:13.436Z,6.60
2023-03-13T01:23:18.886Z,6.73
2023-03-13T01:27:22.585Z,7.83
2023-03-13T01:31:28.570Z,5.80
2023-03-13T01:35:32.602Z,7.63
2023-03-13T01:39:37.569Z,7.60
2023-03-13T01:43:41.350Z,7.87
2023-03-13T01:47:47.770Z,8.07
2023-03-13T01:51:55.399Z,5.50
2023-03-13T01:56:02.259Z,8.50
2023-03-13T02:00:10.966Z,6.13
2023-03-13T02:04:16.027Z,7.77
2023-03-13T02:08:22.984Z,6.27
2023-03-13T02:12:33.325Z,5.90
2023-03-13T02:16:37.818Z,6.97
2023-03-13T02:20:42.721Z,10.50
2023-03-13T02:29:04.852Z,10.67
2023-03-13T02:33:08.537Z,6.70
2023-03-13T02:37:14.479Z,8.20
2023-03-13T02:41:18.730Z,8.50
2023-03-13T02:45:24.184Z,9.80
2023-03-13T02:49:29.773Z,10.63
2023-03-13T02:53:35.621Z,7.97
2023-03-13T02:57:39.271Z,9.60
2023-03-13T03:01:45.895Z,8.07
2023-03-13T03:05:49.468Z,5.23
2023-03-13T03:09:53.144Z,8.17
2023-03-13T03:14:03.874Z,12.63
2023-03-13T03:18:08.867Z,7.00
2023-03-13T03:22:12.590Z,8.20
2023-03-13T03:26:16.176Z,7.20
2023-03-13T03:30:20.857Z,6.30
2023-03-13T03:34:26.124Z,5.43
2023-03-13T03:38:29.718Z,5.93
2023-03-13T03:42:33.678Z,7.23
2023-03-13T03:46:37.196Z,6.33
2023-03-13T03:50:42.335Z,4.33
2023-03-13T03:54:45.889Z,7.97
2023-03-13T03:58:49.664Z,6.10
2023-03-13T04:02:53.268Z,6.63
2023-03-13T04:06:58.383Z,5.37
2023-03-13T04:11:03.011Z,5.70
2023-03-13T04:15:07.690Z,5.80
2023-03-13T04:19:11.444Z,6.23
2023-03-13T04:23:16.413Z,6.00
2023-03-13T04:27:19.971Z,6.63
2023-03-13T04:31:23.640Z,4.63
2023-03-13T04:35:28.537Z,10.00
2023-03-13T04:39:33.550Z,6.60
2023-03-13T04:43:37.379Z,6.60
2023-03-13T04:47:40.993Z,5.50
2023-03-13T04:51:46.039Z,5.30
2023-03-13T04:55:52.344Z,6.67
2023-03-13T04:59:56.263Z,7.17
2023-03-13T05:04:00.187Z,5.87
2023-03-13T05:08:05.273Z,7.70
2023-03-13T05:12:10.918Z,7.60
2023-03-13T05:16:15.710Z,8.43
2023-03-13T05:20:19.511Z,6.73
2023-03-13T05:24:23.443Z,7.07
2023-03-13T05:28:28.811Z,10.20
2023-03-13T05:32:32.508Z,8.30
2023-03-13T05:36:36.289Z,15.70
2023-03-13T05:40:39.870Z,16.40
2023-03-13T05:44:45.002Z,10.83
2023-03-13T05:48:48.562Z,12.77
2023-03-13T05:52:53.478Z,11.10
2023-03-13T05:56:57.191Z,8.67
2023-03-13T06:01:07.102Z,6.60
2023-03-13T06:05:11.628Z,14.03
2023-03-13T06:09:15.720Z,10.50
2023-03-13T06:13:20.448Z,9.47
2023-03-13T06:17:26.441Z,8.70
2023-03-13T06:21:30.739Z,8.97
2023-03-13T06:25:36.487Z,9.00
2023-03-13T06:29:40.038Z,18.60
2023-03-13T06:33:45.216Z,14.50
2023-03-13T06:37:48.732Z,9.93
2023-03-13T06:41:52.463Z,9.37
2023-03-13T06:45:56.093Z,11.07
2023-03-13T06:50:01.533Z,9.63
2023-03-13T06:54:05.478Z,6.90
2023-03-13T06:58:14.017Z,4.30
2023-03-13T07:02:25.903Z,7.27
2023-03-13T07:06:31.289Z,5.93
2023-03-13T07:10:34.998Z,11.00
2023-03-13T07:14:40.901Z,6.37
2023-03-13T07:18:45.005Z,6.17
2023-03-13T07:22:54.874Z,8.30
2023-03-13T07:27:07.201Z,7.50
2023-03-13T07:31:14.806Z,8.17
2023-03-13T07:35:18.761Z,4.47
2023-03-13T07:39:23.954Z,6.50
2023-03-13T07:43:28.130Z,4.53
2023-03-13T07:47:31.712Z,5.83
2023-03-13T07:51:43.586Z,8.17
2023-03-13T07:55:55.838Z,31.03
2023-03-13T07:59:59.372Z,13.03
2023-03-13T08:04:03.741Z,8.70
2023-03-13T08:08:07.644Z,5.40
2023-03-13T08:12:13.881Z,4.53
2023-03-13T08:16:19.362Z,16.07
2023-03-13T08:20:23.084Z,5.77
2023-03-13T08:24:26.870Z,5.03
2023-03-13T08:28:35.420Z,7.07
2023-03-13T08:32:39.190Z,7.17
2023-03-13T08:36:43.971Z,4.87
2023-03-13T08:40:47.549Z,6.87
2023-03-13T08:44:53.642Z,6.10
2023-03-13T08:48:57.161Z,5.70
2023-03-13T08:53:00.941Z,7.27
2023-03-13T08:57:04.578Z,5.43
2023-03-13T09:01:13.842Z,5.73
2023-03-13T09:05:17.594Z,6.27
2023-03-13T09:09:23.245Z,9.67
2023-03-13T09:13:28.985Z,6.97
2023-03-13T09:17:33.968Z,6.83
2023-03-13T09:21:37.926Z,5.40
2023-03-13T09:25:41.747Z,5.80
2023-03-13T09:29:45.526Z,6.30
2023-03-13T09:33:51.925Z,5.23
2023-03-13T09:37:55.716Z,6.17
2023-03-13T09:42:07.758Z,7.63
2023-03-13T09:46:19.786Z,6.33
2023-03-13T09:50:28.990Z,12.30
2023-03-13T09:54:39.501Z,7.10
2023-03-13T09:58:49.796Z,7.67
2023-03-13T10:02:58.335Z,6.77
2023-03-13T10:07:05.052Z,6.50
2023-03-13T10:11:13.185Z,7.83
2023-03-13T10:15:36.754Z,7.67
2023-03-13T10:19:43.643Z,6.10
2023-03-13T10:23:54.976Z,5.70
2023-03-13T10:27:59.006Z,7.43
2023-03-13T10:32:03.875Z,5.97
2023-03-13T10:36:10.188Z,6.93
2023-03-13T10:40:23.070Z,8.83
2023-03-13T10:44:34.648Z,7.03
2023-03-13T10:48:39.060Z,10.00
2023-03-13T10:52:45.767Z,6.30
2023-03-13T10:56:51.224Z,5.93
2023-03-13T11:01:10.620Z,6.37
2023-03-13T11:05:40.282Z,5.80
2023-03-13T11:09:43.814Z,5.77
2023-03-13T11:13:48.990Z,10.93
2023-03-13T11:17:58.818Z,4.63
2023-03-13T11:22:30.559Z,6.07
2023-03-13T11:26:38.333Z,5.90
2023-03-13T11:30:57.757Z,7.23
2023-03-13T11:35:05.444Z,5.57
2023-03-13T11:39:32.828Z,6.37
2023-03-13T11:43:55.850Z,5.40
2023-03-13T11:48:10.179Z,5.60
2023-03-13T11:52:32.462Z,4.57
2023-03-13T11:56:43.172Z,5.97
2023-03-13T12:00:52.137Z,4.97
2023-03-13T12:05:01.941Z,8.33
2023-03-13T12:09:13.424Z,4.67
2023-03-13T12:13:21.074Z,4.93
2023-03-13T12:17:33.250Z,5.50
2023-03-13T12:21:44.610Z,9.40
2023-03-13T12:25:58.005Z,7.63
2023-03-13T12:30:06.744Z,4.13
2023-03-13T12:34:20.300Z,6.67
2023-03-13T12:38:31.659Z,5.90
2023-03-13T12:42:45.045Z,4.70
2023-03-13T12:46:54.200Z,8.47
2023-03-13T12:51:14.160Z,5.30
2023-03-13T12:55:50.474Z,5.43
2023-03-13T12:59:59.332Z,5.93
2023-03-13T13:04:06.961Z,7.10
2023-03-13T13:08:26.575Z,5.37
2023-03-13T13:12:31.309Z,5.60
2023-03-13T13:16:36.660Z,4.53
2023-03-13T13:20:44.564Z,6.10
2023-03-13T13:24:51.875Z,4.83
2023-03-13T13:28:55.921Z,3.93
2023-03-13T13:33:42.057Z,3.13
2023-03-13T13:37:47.571Z,4.40
2023-03-13T13:41:53.253Z,3.53
2023-03-13T13:46:15.649Z,3.63
2023-03-13T13:50:23.032Z,3.20
2023-03-13T13:54:56.434Z,3.20
2023-03-13T13:59:04.139Z,5.07
2023-03-13T14:03:20.441Z,3.50
2023-03-13T14:07:32.221Z,6.10
2023-03-13T14:11:39.627Z,2.93
2023-03-13T14:15:45.602Z,3.40
2023-03-13T14:19:51.300Z,3.23
2023-03-13T14:23:56.308Z,4.00
2023-03-13T14:27:59.849Z,4.30
2023-03-13T14:32:04.140Z,6.23
2023-03-13T14:36:08.340Z,6.27
2023-03-13T14:40:22.248Z,3.73
2023-03-13T14:44:30.120Z,5.00
2023-03-13T14:48:36.486Z,7.30
2023-03-13T14:52:45.741Z,4.80
2023-03-13T14:56:51.211Z,11.90
2023-03-13T15:00:55.620Z,4.40
2023-03-13T15:05:01.474Z,5.53
2023-03-13T15:09:21.096Z,6.40
2023-03-13T15:13:29.504Z,4.83
2023-03-13T15:17:34.454Z,4.60
2023-03-13T15:21:38.534Z,4.90
2023-03-13T15:25:42.397Z,4.70
2023-03-13T15:29:48.309Z,4.40
2023-03-13T15:33:57.266Z,6.23
2023-03-13T15:38:02.763Z,3.20
2023-03-13T15:42:06.890Z,3.43
2023-03-13T15:46:15.234Z,7.13
2023-03-13T15:50:20.757Z,5.03
2023-03-13T15:54:26.593Z,3.93
2023-03-13T15:58:31.092Z,5.50
2023-03-13T16:02:36.143Z,7.10
2023-03-13T16:06:39.915Z,3.13
2023-03-13T16:10:44.049Z,3.33
2023-03-13T16:14:47.606Z,3.53
2023-03-13T16:18:54.292Z,6.50
2023-03-13T16:22:57.859Z,4.10
2023-03-13T16:27:02.231Z,4.37
2023-03-13T16:31:07.163Z,7.00
2023-03-13T16:35:14.193Z,10.20
2023-03-13T16:39:18.335Z,5.43
2023-03-13T16:43:22.739Z,3.80
2023-03-13T16:47:34.546Z,8.63
2023-03-13T16:51:40.747Z,7.07
2023-03-13T16:55:45.852Z,9.20
2023-03-13T16:59:51.615Z,12.00
2023-03-13T17:03:56.528Z,4.00
2023-03-13T17:08:02.474Z,6.97
2023-03-13T17:12:07.665Z,10.50
2023-03-13T17:16:16.924Z,4.97
2023-03-13T17:20:25.269Z,5.70
2023-03-13T17:24:32.355Z,9.30
2023-03-13T17:28:37.008Z,11.43
2023-03-13T17:32:43.187Z,6.83
2023-03-13T17:36:49.348Z,6.30
2023-03-13T17:40:56.240Z,6.50
2023-03-13T17:45:00.929Z,7.13
2023-03-13T17:49:05.433Z,8.90
2023-03-13T17:53:11.265Z,11.63
2023-03-13T17:57:18.687Z,7.40
2023-03-13T18:01:25.228Z,8.03
2023-03-13T18:05:30.158Z,10.63
2023-03-13T18:09:34.354Z,10.07
2023-03-13T18:13:40.103Z,11.00
2023-03-13T18:17:44.357Z,12.80
2023-03-13T18:21:50.637Z,11.57
2023-03-13T18:25:59.014Z,10.27
2023-03-13T18:30:05.139Z,12.20
2023-03-13T18:34:09.744Z,10.87
2023-03-13T18:38:15.829Z,9.93
2023-03-13T18:42:21.808Z,19.73
2023-03-13T18:46:31.162Z,11.43
2023-03-13T18:50:36.357Z,16.03
2023-03-13T18:54:41.750Z,23.97
2023-03-13T18:58:50.322Z,16.70
2023-03-13T19:02:56.699Z,14.93
2023-03-13T19:07:01.651Z,14.23
2023-03-13T19:11:08.115Z,13.70
2023-03-13T19:15:28.548Z,17.57
2023-03-13T19:19:35.816Z,9.90
2023-03-13T19:24:20.513Z,12.90
2023-03-13T20:01:40.784Z,13.67
2023-03-13T20:05:47.327Z,14.33
2023-03-13T20:09:52.819Z,14.10
2023-03-13T20:13:58.241Z,12.30
2023-03-13T20:18:07.069Z,22.60
2023-03-13T20:22:12.250Z,13.57
2023-03-13T20:26:27.303Z,20.90
2023-03-13T20:30:33.094Z,19.77
2023-03-13T20:34:42.026Z,14.80
2023-03-13T20:39:11.115Z,11.47
2023-03-13T20:43:20.745Z,13.33
2023-03-13T20:47:26.345Z,13.33
2023-03-13T20:51:33.269Z,10.07
2023-03-13T20:55:41.042Z,13.43
2023-03-13T20:59:46.087Z,10.60
2023-03-13T21:03:50.527Z,11.37
2023-03-13T21:07:58.331Z,12.67
2023-03-13T21:12:02.749Z,12.03
2023-03-13T21:16:07.777Z,10.13
2023-03-13T21:20:14.029Z,12.23
2023-03-13T21:24:20.476Z,8.57
2023-03-13T21:28:26.004Z,8.53
2023-03-13T21:32:29.690Z,11.77
2023-03-13T21:36:35.198Z,12.60
2023-03-13T21:40:41.117Z,8.97
2023-03-13T21:44:45.633Z,10.70
2023-03-13T21:48:49.216Z,11.47
2023-03-13T21:52:52.921Z,10.77
2023-03-13T21:56:58.150Z,10.87
2023-03-13T22:01:01.966Z,10.23
2023-03-13T22:05:06.828Z,7.70
2023-03-13T22:09:10.538Z,15.80
2023-03-13T22:13:15.485Z,22.00
2023-03-13T22:17:19.913Z,19.07
2023-03-13T22:21:23.802Z,15.93
2023-03-13T22:25:27.369Z,14.33
2023-03-13T22:29:34.329Z,15.03
2023-03-13T22:33:38.147Z,11.63
2023-03-13T22:37:41.904Z,13.63
2023-03-13T22:41:45.674Z,18.50
2023-03-13T22:45:50.666Z,15.03
2023-03-13T22:49:55.065Z,10.10
2023-03-13T22:53:58.618Z,14.60
2023-03-13T22:58:10.259Z,13.60
2023-03-13T23:02:15.245Z,8.87
2023-03-13T23:06:21.698Z,8.30
2023-03-13T23:10:25.365Z,10.67
2023-03-13T23:14:29.264Z,8.93
2023-03-13T23:18:34.736Z,10.53
2023-03-13T23:22:38.531Z,10.27
2023-03-13T23:26:42.158Z,9.20
2023-03-13T23:30:45.722Z,10.07
2023-03-13T23:34:51.001Z,22.37
2023-03-13T23:38:57.602Z,8.03
2023-03-13T23:43:01.435Z,9.87
2023-03-13T23:47:04.970Z,10.53
2023-03-13T23:51:10.705Z,7.53
2023-03-13T23:55:14.311Z,8.27
2023-03-13T23:59:18.454Z,7.27
